sensor_id;sensor_type;location;lat;lon;timestamp;temperature;humidity
13600;DHT22;6871;51.34740610;4.31323160;2023-05-02T00:01:41;17.90;87.40
13600;DHT22;6871;51.34740610;4.31323160;2023-05-02T00:04:10;17.90;87.50
13600;DHT22;6871;51.34740610;4.31323160;2023-05-02T00:06:40;17.90;87.60
13600;DHT22;6871;51.34740610;4.31323160;2023-05-02T00:09:09;17.90;87.70
13600;DHT22;6871;51.34740610;4.31323160;2023-05-02T00:11:39;17.90;87.60
13600;DHT22;6871;51.34740610;4.31323160;2023-05-02T00:14:08;17.90;87.60
13600;DHT22;6871;51.34740610;4.31323160;2023-05-02T00:16:37;17.90;87.40
13600;DHT22;6871;51.34740610;4.31323160;2023-05-02T00:19:07;17.90;87.40
13600;DHT22;6871;51.34740610;4.31323160;2023-05-02T00:21:36;17.90;87.50
13600;DHT22;6871;51.34740610;4.31323160;2023-05-02T00:24:06;17.90;87.50
13600;DHT22;6871;51.34740610;4.31323160;2023-05-02T00:26:36;17.90;87.80
13600;DHT22;6871;51.34740610;4.31323160;2023-05-02T00:29:05;17.90;87.70
13600;DHT22;6871;51.34740610;4.31323160;2023-05-02T00:31:35;17.90;87.60
13600;DHT22;6871;51.34740610;4.31323160;2023-05-02T00:34:04;17.90;87.50
13600;DHT22;6871;51.34740610;4.31323160;2023-05-02T00:36:33;17.80;87.30
13600;DHT22;6871;51.34740610;4.31323160;2023-05-02T00:39:03;17.90;87.40
13600;DHT22;6871;51.34740610;4.31323160;2023-05-02T00:41:32;17.90;87.70
13600;DHT22;6871;51.34740610;4.31323160;2023-05-02T00:44:01;17.80;87.60
13600;DHT22;6871;51.34740610;4.31323160;2023-05-02T00:46:31;17.90;87.70
13600;DHT22;6871;51.34740610;4.31323160;2023-05-02T00:49:00;17.80;87.50
13600;DHT22;6871;51.34740610;4.31323160;2023-05-02T00:51:30;17.80;87.30
13600;DHT22;6871;51.34740610;4.31323160;2023-05-02T00:54:01;17.80;87.20
13600;DHT22;6871;51.34740610;4.31323160;2023-05-02T00:56:31;17.80;87.30
13600;DHT22;6871;51.34740610;4.31323160;2023-05-02T00:59:00;17.80;87.50
13600;DHT22;6871;51.34740610;4.31323160;2023-05-02T01:01:35;17.80;87.50
13600;DHT22;6871;51.34740610;4.31323160;2023-05-02T01:04:10;17.80;87.50
13600;DHT22;6871;51.34740610;4.31323160;2023-05-02T01:06:45;17.80;87.40
13600;DHT22;6871;51.34740610;4.31323160;2023-05-02T01:09:24;17.80;87.30
13600;DHT22;6871;51.34740610;4.31323160;2023-05-02T01:11:59;17.80;87.20
13600;DHT22;6871;51.34740610;4.31323160;2023-05-02T01:14:28;17.80;87.50
13600;DHT22;6871;51.34740610;4.31323160;2023-05-02T01:17:01;17.80;87.80
13600;DHT22;6871;51.34740610;4.31323160;2023-05-02T01:19:34;17.80;87.60
13600;DHT22;6871;51.34740610;4.31323160;2023-05-02T01:22:06;17.80;87.80
13600;DHT22;6871;51.34740610;4.31323160;2023-05-02T01:24:39;17.80;87.40
13600;DHT22;6871;51.34740610;4.31323160;2023-05-02T01:27:21;17.80;87.20
13600;DHT22;6871;51.34740610;4.31323160;2023-05-02T01:29:47;17.80;87.30
13600;DHT22;6871;51.34740610;4.31323160;2023-05-02T01:32:18;17.80;87.50
13600;DHT22;6871;51.34740610;4.31323160;2023-05-02T01:34:50;17.80;87.60
13600;DHT22;6871;51.34740610;4.31323160;2023-05-02T01:37:21;17.80;87.60
13600;DHT22;6871;51.34740610;4.31323160;2023-05-02T01:39:51;17.70;87.50
13600;DHT22;6871;51.34740610;4.31323160;2023-05-02T01:42:23;17.80;87.30
13600;DHT22;6871;51.34740610;4.31323160;2023-05-02T01:44:55;17.70;87.10
13600;DHT22;6871;51.34740610;4.31323160;2023-05-02T01:47:25;17.70;87.20
13600;DHT22;6871;51.34740610;4.31323160;2023-05-02T01:49:56;17.70;87.40
13600;DHT22;6871;51.34740610;4.31323160;2023-05-02T01:52:27;17.70;87.30
13600;DHT22;6871;51.34740610;4.31323160;2023-05-02T01:54:58;17.70;87.40
13600;DHT22;6871;51.34740610;4.31323160;2023-05-02T01:57:27;17.70;87.30
13600;DHT22;6871;51.34740610;4.31323160;2023-05-02T01:59:58;17.70;87.00
13600;DHT22;6871;51.34740610;4.31323160;2023-05-02T02:02:29;17.70;86.90
13600;DHT22;6871;51.34740610;4.31323160;2023-05-02T02:04:58;17.70;87.00
13600;DHT22;6871;51.34740610;4.31323160;2023-05-02T02:07:28;17.70;87.30
13600;DHT22;6871;51.34740610;4.31323160;2023-05-02T02:09:58;17.70;87.30
13600;DHT22;6871;51.34740610;4.31323160;2023-05-02T02:12:30;17.70;87.30
13600;DHT22;6871;51.34740610;4.31323160;2023-05-02T02:15:07;17.70;87.30
13600;DHT22;6871;51.34740610;4.31323160;2023-05-02T02:17:36;17.70;86.90
13600;DHT22;6871;51.34740610;4.31323160;2023-05-02T02:20:10;17.70;86.90
13600;DHT22;6871;51.34740610;4.31323160;2023-05-02T02:22:41;17.70;87.00
13600;DHT22;6871;51.34740610;4.31323160;2023-05-02T02:25:14;17.70;87.30
13600;DHT22;6871;51.34740610;4.31323160;2023-05-02T02:27:44;17.70;87.30
13600;DHT22;6871;51.34740610;4.31323160;2023-05-02T02:30:13;17.70;87.10
13600;DHT22;6871;51.34740610;4.31323160;2023-05-02T02:32:43;17.70;86.90
13600;DHT22;6871;51.34740610;4.31323160;2023-05-02T02:35:12;17.70;86.80
13600;DHT22;6871;51.34740610;4.31323160;2023-05-02T02:37:45;17.60;86.70
13600;DHT22;6871;51.34740610;4.31323160;2023-05-02T02:40:21;17.60;86.80
13600;DHT22;6871;51.34740610;4.31323160;2023-05-02T02:42:54;17.60;87.10
13600;DHT22;6871;51.34740610;4.31323160;2023-05-02T02:45:29;17.60;86.90
13600;DHT22;6871;51.34740610;4.31323160;2023-05-02T02:48:04;17.60;86.80
13600;DHT22;6871;51.34740610;4.31323160;2023-05-02T02:50:35;17.60;86.80
13600;DHT22;6871;51.34740610;4.31323160;2023-05-02T02:53:08;17.60;86.60
13600;DHT22;6871;51.34740610;4.31323160;2023-05-02T02:55:42;17.60;86.70
13600;DHT22;6871;51.34740610;4.31323160;2023-05-02T02:58:27;17.60;86.90
13600;DHT22;6871;51.34740610;4.31323160;2023-05-02T03:00:52;17.60;86.90
13600;DHT22;6871;51.34740610;4.31323160;2023-05-02T03:03:24;17.60;87.00
13600;DHT22;6871;51.34740610;4.31323160;2023-05-02T03:05:56;17.60;86.90
13600;DHT22;6871;51.34740610;4.31323160;2023-05-02T03:08:25;17.60;86.70
13600;DHT22;6871;51.34740610;4.31323160;2023-05-02T03:10:55;17.60;86.80
13600;DHT22;6871;51.34740610;4.31323160;2023-05-02T03:13:24;17.60;86.70
13600;DHT22;6871;51.34740610;4.31323160;2023-05-02T03:18:58;17.60;86.90
13600;DHT22;6871;51.34740610;4.31323160;2023-05-02T03:21:27;17.60;87.00
13600;DHT22;6871;51.34740610;4.31323160;2023-05-02T03:23:59;17.60;86.80
13600;DHT22;6871;51.34740610;4.31323160;2023-05-02T03:26:28;17.50;86.70
13600;DHT22;6871;51.34740610;4.31323160;2023-05-02T03:28:57;17.50;87.50
13600;DHT22;6871;51.34740610;4.31323160;2023-05-02T03:31:27;17.50;86.70
13600;DHT22;6871;51.34740610;4.31323160;2023-05-02T03:33:56;17.50;86.80
13600;DHT22;6871;51.34740610;4.31323160;2023-05-02T03:36:25;17.60;86.80
13600;DHT22;6871;51.34740610;4.31323160;2023-05-02T03:38:55;17.50;86.70
13600;DHT22;6871;51.34740610;4.31323160;2023-05-02T03:41:24;17.50;86.50
13600;DHT22;6871;51.34740610;4.31323160;2023-05-02T03:43:56;17.50;86.50
13600;DHT22;6871;51.34740610;4.31323160;2023-05-02T03:46:25;17.50;86.50
13600;DHT22;6871;51.34740610;4.31323160;2023-05-02T03:48:54;17.50;86.60
13600;DHT22;6871;51.34740610;4.31323160;2023-05-02T03:51:25;17.50;86.70
13600;DHT22;6871;51.34740610;4.31323160;2023-05-02T03:53:54;17.60;86.70
13600;DHT22;6871;51.34740610;4.31323160;2023-05-02T03:56:23;17.50;86.70
13600;DHT22;6871;51.34740610;4.31323160;2023-05-02T03:58:53;17.50;86.40
13600;DHT22;6871;51.34740610;4.31323160;2023-05-02T04:01:22;17.50;86.30
13600;DHT22;6871;51.34740610;4.31323160;2023-05-02T04:03:52;17.50;86.30
13600;DHT22;6871;51.34740610;4.31323160;2023-05-02T04:06:21;17.50;86.50
13600;DHT22;6871;51.34740610;4.31323160;2023-05-02T04:08:51;17.50;86.50
13600;DHT22;6871;51.34740610;4.31323160;2023-05-02T04:11:21;17.50;86.50
13600;DHT22;6871;51.34740610;4.31323160;2023-05-02T04:13:52;17.50;86.40
13600;DHT22;6871;51.34740610;4.31323160;2023-05-02T04:16:22;17.50;86.10
13600;DHT22;6871;51.34740610;4.31323160;2023-05-02T04:18:51;17.50;86.10
13600;DHT22;6871;51.34740610;4.31323160;2023-05-02T04:21:25;17.50;86.20
13600;DHT22;6871;51.34740610;4.31323160;2023-05-02T04:23:55;17.50;86.30
13600;DHT22;6871;51.34740610;4.31323160;2023-05-02T04:26:24;17.50;86.40
13600;DHT22;6871;51.34740610;4.31323160;2023-05-02T04:28:53;17.50;86.40
13600;DHT22;6871;51.34740610;4.31323160;2023-05-02T04:31:23;17.50;86.30
13600;DHT22;6871;51.34740610;4.31323160;2023-05-02T04:33:53;17.40;86.00
13600;DHT22;6871;51.34740610;4.31323160;2023-05-02T04:36:23;17.40;86.00
13600;DHT22;6871;51.34740610;4.31323160;2023-05-02T04:38:53;17.40;86.20
13600;DHT22;6871;51.34740610;4.31323160;2023-05-02T04:41:22;17.40;86.10
13600;DHT22;6871;51.34740610;4.31323160;2023-05-02T04:43:52;17.40;86.20
13600;DHT22;6871;51.34740610;4.31323160;2023-05-02T04:46:21;17.40;86.10
13600;DHT22;6871;51.34740610;4.31323160;2023-05-02T04:48:52;17.40;86.10
13600;DHT22;6871;51.34740610;4.31323160;2023-05-02T04:51:21;17.40;85.90
13600;DHT22;6871;51.34740610;4.31323160;2023-05-02T04:53:51;17.40;85.70
13600;DHT22;6871;51.34740610;4.31323160;2023-05-02T04:56:21;17.40;85.90
13600;DHT22;6871;51.34740610;4.31323160;2023-05-02T04:58:52;17.40;86.00
13600;DHT22;6871;51.34740610;4.31323160;2023-05-02T05:01:21;17.40;85.60
13600;DHT22;6871;51.34740610;4.31323160;2023-05-02T05:03:52;17.40;86.10
13600;DHT22;6871;51.34740610;4.31323160;2023-05-02T05:06:22;17.40;85.90
13600;DHT22;6871;51.34740610;4.31323160;2023-05-02T05:08:52;17.40;85.60
13600;DHT22;6871;51.34740610;4.31323160;2023-05-02T05:11:22;17.40;85.60
13600;DHT22;6871;51.34740610;4.31323160;2023-05-02T05:13:52;17.40;85.90
13600;DHT22;6871;51.34740610;4.31323160;2023-05-02T05:16:21;17.40;86.00
13600;DHT22;6871;51.34740610;4.31323160;2023-05-02T05:18:52;17.40;85.80
13600;DHT22;6871;51.34740610;4.31323160;2023-05-02T05:21:21;17.40;86.20
13600;DHT22;6871;51.34740610;4.31323160;2023-05-02T05:26:56;17.40;85.70
13600;DHT22;6871;51.34740610;4.31323160;2023-05-02T05:29:25;17.40;85.70
13600;DHT22;6871;51.34740610;4.31323160;2023-05-02T05:31:55;17.30;85.90
13600;DHT22;6871;51.34740610;4.31323160;2023-05-02T05:34:24;17.40;86.10
13600;DHT22;6871;51.34740610;4.31323160;2023-05-02T05:36:53;17.30;86.00
13600;DHT22;6871;51.34740610;4.31323160;2023-05-02T05:39:23;17.30;86.00
13600;DHT22;6871;51.34740610;4.31323160;2023-05-02T05:41:52;17.30;85.70
13600;DHT22;6871;51.34740610;4.31323160;2023-05-02T05:44:22;17.30;85.60
13600;DHT22;6871;51.34740610;4.31323160;2023-05-02T05:46:52;17.30;85.90
13600;DHT22;6871;51.34740610;4.31323160;2023-05-02T05:49:22;17.20;86.30
13600;DHT22;6871;51.34740610;4.31323160;2023-05-02T05:51:51;17.20;86.10
13600;DHT22;6871;51.34740610;4.31323160;2023-05-02T05:54:21;17.30;85.70
13600;DHT22;6871;51.34740610;4.31323160;2023-05-02T05:56:50;17.30;85.50
13600;DHT22;6871;51.34740610;4.31323160;2023-05-02T05:59:19;17.30;85.30
13600;DHT22;6871;51.34740610;4.31323160;2023-05-02T06:01:49;17.30;85.20
13600;DHT22;6871;51.34740610;4.31323160;2023-05-02T06:04:18;17.30;85.60
13600;DHT22;6871;51.34740610;4.31323160;2023-05-02T06:06:47;17.30;85.50
13600;DHT22;6871;51.34740610;4.31323160;2023-05-02T06:09:20;17.40;85.50
13600;DHT22;6871;51.34740610;4.31323160;2023-05-02T06:11:49;17.30;85.50
13600;DHT22;6871;51.34740610;4.31323160;2023-05-02T06:14:18;17.30;85.30
13600;DHT22;6871;51.34740610;4.31323160;2023-05-02T06:16:48;17.30;85.20
13600;DHT22;6871;51.34740610;4.31323160;2023-05-02T06:19:17;17.30;85.20
13600;DHT22;6871;51.34740610;4.31323160;2023-05-02T06:21:46;17.30;85.30
13600;DHT22;6871;51.34740610;4.31323160;2023-05-02T06:24:17;17.30;85.30
13600;DHT22;6871;51.34740610;4.31323160;2023-05-02T06:26:46;17.30;85.20
13600;DHT22;6871;51.34740610;4.31323160;2023-05-02T06:29:15;17.30;85.40
13600;DHT22;6871;51.34740610;4.31323160;2023-05-02T06:31:45;17.30;85.20
13600;DHT22;6871;51.34740610;4.31323160;2023-05-02T06:34:14;17.20;85.30
13600;DHT22;6871;51.34740610;4.31323160;2023-05-02T06:36:43;17.20;85.50
13600;DHT22;6871;51.34740610;4.31323160;2023-05-02T06:39:12;17.30;85.30
13600;DHT22;6871;51.34740610;4.31323160;2023-05-02T06:41:42;17.30;85.30
13600;DHT22;6871;51.34740610;4.31323160;2023-05-02T06:44:11;17.30;85.30
13600;DHT22;6871;51.34740610;4.31323160;2023-05-02T06:46:40;17.30;85.20
13600;DHT22;6871;51.34740610;4.31323160;2023-05-02T06:49:10;17.30;85.10
13600;DHT22;6871;51.34740610;4.31323160;2023-05-02T06:51:39;17.30;85.00
13600;DHT22;6871;51.34740610;4.31323160;2023-05-02T06:54:08;17.30;85.10
13600;DHT22;6871;51.34740610;4.31323160;2023-05-02T06:56:38;17.30;85.20
13600;DHT22;6871;51.34740610;4.31323160;2023-05-02T06:59:08;17.30;85.20
13600;DHT22;6871;51.34740610;4.31323160;2023-05-02T07:01:37;17.30;85.20
13600;DHT22;6871;51.34740610;4.31323160;2023-05-02T07:04:07;17.30;85.10
13600;DHT22;6871;51.34740610;4.31323160;2023-05-02T07:06:36;17.30;85.00
13600;DHT22;6871;51.34740610;4.31323160;2023-05-02T07:09:06;17.30;85.30
13600;DHT22;6871;51.34740610;4.31323160;2023-05-02T07:11:35;17.30;85.30
13600;DHT22;6871;51.34740610;4.31323160;2023-05-02T07:14:04;17.30;85.20
13600;DHT22;6871;51.34740610;4.31323160;2023-05-02T07:16:34;17.30;85.10
13600;DHT22;6871;51.34740610;4.31323160;2023-05-02T07:19:03;17.30;85.00
13600;DHT22;6871;51.34740610;4.31323160;2023-05-02T07:21:33;17.30;85.20
13600;DHT22;6871;51.34740610;4.31323160;2023-05-02T07:24:03;17.30;85.10
13600;DHT22;6871;51.34740610;4.31323160;2023-05-02T07:26:32;17.30;85.20
13600;DHT22;6871;51.34740610;4.31323160;2023-05-02T07:29:01;17.30;85.30
13600;DHT22;6871;51.34740610;4.31323160;2023-05-02T07:31:33;17.30;85.20
13600;DHT22;6871;51.34740610;4.31323160;2023-05-02T07:34:02;17.40;85.10
13600;DHT22;6871;51.34740610;4.31323160;2023-05-02T07:36:32;17.40;85.00
13600;DHT22;6871;51.34740610;4.31323160;2023-05-02T07:39:01;17.30;84.80
13600;DHT22;6871;51.34740610;4.31323160;2023-05-02T07:41:30;17.40;84.70
13600;DHT22;6871;51.34740610;4.31323160;2023-05-02T07:44:00;17.40;84.70
13600;DHT22;6871;51.34740610;4.31323160;2023-05-02T07:46:29;17.40;84.60
13600;DHT22;6871;51.34740610;4.31323160;2023-05-02T07:48:59;17.40;84.60
13600;DHT22;6871;51.34740610;4.31323160;2023-05-02T07:51:28;17.40;84.60
13600;DHT22;6871;51.34740610;4.31323160;2023-05-02T07:53:58;17.40;84.60
13600;DHT22;6871;51.34740610;4.31323160;2023-05-02T07:56:28;17.40;84.60
13600;DHT22;6871;51.34740610;4.31323160;2023-05-02T07:59:00;17.40;84.60
13600;DHT22;6871;51.34740610;4.31323160;2023-05-02T08:01:29;17.40;84.50
13600;DHT22;6871;51.34740610;4.31323160;2023-05-02T08:03:59;17.40;84.60
13600;DHT22;6871;51.34740610;4.31323160;2023-05-02T08:06:31;17.50;84.60
13600;DHT22;6871;51.34740610;4.31323160;2023-05-02T08:09:00;17.40;84.60
13600;DHT22;6871;51.34740610;4.31323160;2023-05-02T08:11:30;17.50;84.60
13600;DHT22;6871;51.34740610;4.31323160;2023-05-02T08:13:59;17.50;84.60
13600;DHT22;6871;51.34740610;4.31323160;2023-05-02T08:16:28;17.50;84.50
13600;DHT22;6871;51.34740610;4.31323160;2023-05-02T08:18:58;17.60;84.40
13600;DHT22;6871;51.34740610;4.31323160;2023-05-02T08:21:27;17.60;84.40
13600;DHT22;6871;51.34740610;4.31323160;2023-05-02T08:23:59;17.60;84.40
13600;DHT22;6871;51.34740610;4.31323160;2023-05-02T08:26:28;17.50;85.20
13600;DHT22;6871;51.34740610;4.31323160;2023-05-02T08:28:58;17.50;84.40
13600;DHT22;6871;51.34740610;4.31323160;2023-05-02T08:31:27;17.50;84.40
13600;DHT22;6871;51.34740610;4.31323160;2023-05-02T08:33:57;17.50;84.50
13600;DHT22;6871;51.34740610;4.31323160;2023-05-02T08:36:26;17.50;84.40
13600;DHT22;6871;51.34740610;4.31323160;2023-05-02T08:38:57;17.50;84.30
13600;DHT22;6871;51.34740610;4.31323160;2023-05-02T08:41:28;17.50;84.40
13600;DHT22;6871;51.34740610;4.31323160;2023-05-02T08:43:59;17.60;84.30
13600;DHT22;6871;51.34740610;4.31323160;2023-05-02T08:46:31;17.60;84.30
13600;DHT22;6871;51.34740610;4.31323160;2023-05-02T08:49:02;17.60;84.20
13600;DHT22;6871;51.34740610;4.31323160;2023-05-02T08:51:33;17.60;84.10
13600;DHT22;6871;51.34740610;4.31323160;2023-05-02T08:54:03;17.60;84.00
13600;DHT22;6871;51.34740610;4.31323160;2023-05-02T08:56:34;17.60;84.10
13600;DHT22;6871;51.34740610;4.31323160;2023-05-02T08:59:04;17.60;84.00
13600;DHT22;6871;51.34740610;4.31323160;2023-05-02T09:01:36;17.60;84.40
13600;DHT22;6871;51.34740610;4.31323160;2023-05-02T09:04:06;17.60;84.50
13600;DHT22;6871;51.34740610;4.31323160;2023-05-02T09:06:36;17.60;84.20
13600;DHT22;6871;51.34740610;4.31323160;2023-05-02T09:09:25;17.70;84.00
13600;DHT22;6871;51.34740610;4.31323160;2023-05-02T09:15:18;17.70;83.90
13600;DHT22;6871;51.34740610;4.31323160;2023-05-02T09:18:18;17.70;83.90
13600;DHT22;6871;51.34740610;4.31323160;2023-05-02T09:20:48;17.70;83.80
13600;DHT22;6871;51.34740610;4.31323160;2023-05-02T09:23:18;17.80;83.70
13600;DHT22;6871;51.34740610;4.31323160;2023-05-02T09:25:47;17.80;83.80
13600;DHT22;6871;51.34740610;4.31323160;2023-05-02T09:28:17;17.80;83.80
13600;DHT22;6871;51.34740610;4.31323160;2023-05-02T09:30:46;17.80;83.70
13600;DHT22;6871;51.34740610;4.31323160;2023-05-02T09:33:26;17.80;83.60
13600;DHT22;6871;51.34740610;4.31323160;2023-05-02T09:35:55;17.80;84.50
13600;DHT22;6871;51.34740610;4.31323160;2023-05-02T09:38:24;17.80;83.50
13600;DHT22;6871;51.34740610;4.31323160;2023-05-02T09:41:01;17.80;83.40
13600;DHT22;6871;51.34740610;4.31323160;2023-05-02T09:44:16;17.90;83.20
13600;DHT22;6871;51.34740610;4.31323160;2023-05-02T09:47:04;17.90;82.60
13600;DHT22;6871;51.34740610;4.31323160;2023-05-02T09:53:16;17.90;82.50
13600;DHT22;6871;51.34740610;4.31323160;2023-05-02T09:55:45;17.90;82.30
13600;DHT22;6871;51.34740610;4.31323160;2023-05-02T09:58:21;17.80;82.70
13600;DHT22;6871;51.34740610;4.31323160;2023-05-02T10:00:51;17.90;82.60
13600;DHT22;6871;51.34740610;4.31323160;2023-05-02T10:03:22;17.90;82.30
13600;DHT22;6871;51.34740610;4.31323160;2023-05-02T10:05:52;18.00;82.40
13600;DHT22;6871;51.34740610;4.31323160;2023-05-02T10:08:23;18.10;82.10
13600;DHT22;6871;51.34740610;4.31323160;2023-05-02T10:10:55;18.10;82.10
13600;DHT22;6871;51.34740610;4.31323160;2023-05-02T10:13:26;18.10;82.00
13600;DHT22;6871;51.34740610;4.31323160;2023-05-02T10:16:00;18.10;82.10
13600;DHT22;6871;51.34740610;4.31323160;2023-05-02T10:18:32;18.20;81.80
13600;DHT22;6871;51.34740610;4.31323160;2023-05-02T10:21:07;18.20;81.20
13600;DHT22;6871;51.34740610;4.31323160;2023-05-02T10:23:41;18.30;81.50
13600;DHT22;6871;51.34740610;4.31323160;2023-05-02T10:26:14;18.30;81.40
13600;DHT22;6871;51.34740610;4.31323160;2023-05-02T10:28:43;18.30;81.30
13600;DHT22;6871;51.34740610;4.31323160;2023-05-02T10:31:14;18.40;81.60
13600;DHT22;6871;51.34740610;4.31323160;2023-05-02T10:33:44;18.40;81.80
13600;DHT22;6871;51.34740610;4.31323160;2023-05-02T10:36:15;18.40;81.70
13600;DHT22;6871;51.34740610;4.31323160;2023-05-02T10:38:46;18.40;81.70
13600;DHT22;6871;51.34740610;4.31323160;2023-05-02T10:41:17;18.40;81.40
13600;DHT22;6871;51.34740610;4.31323160;2023-05-02T10:43:49;18.50;81.40
13600;DHT22;6871;51.34740610;4.31323160;2023-05-02T10:46:32;18.40;81.60
13600;DHT22;6871;51.34740610;4.31323160;2023-05-02T10:49:02;18.50;81.30
13600;DHT22;6871;51.34740610;4.31323160;2023-05-02T10:51:33;18.50;81.40
13600;DHT22;6871;51.34740610;4.31323160;2023-05-02T10:54:22;18.50;81.40
13600;DHT22;6871;51.34740610;4.31323160;2023-05-02T10:57:07;18.50;81.10
13600;DHT22;6871;51.34740610;4.31323160;2023-05-02T10:59:39;18.50;81.30
13600;DHT22;6871;51.34740610;4.31323160;2023-05-02T11:05:14;18.60;81.50
13600;DHT22;6871;51.34740610;4.31323160;2023-05-02T11:07:44;18.60;81.00
13600;DHT22;6871;51.34740610;4.31323160;2023-05-02T11:10:26;18.60;81.70
13600;DHT22;6871;51.34740610;4.31323160;2023-05-02T11:12:56;18.60;81.80
13600;DHT22;6871;51.34740610;4.31323160;2023-05-02T11:15:54;18.60;82.10
13600;DHT22;6871;51.34740610;4.31323160;2023-05-02T11:18:24;18.50;81.00
13600;DHT22;6871;51.34740610;4.31323160;2023-05-02T11:21:23;18.40;79.70
13600;DHT22;6871;51.34740610;4.31323160;2023-05-02T11:23:30;18.40;79.70
13600;DHT22;6871;51.34740610;4.31323160;2023-05-02T11:26:04;18.30;79.60
13600;DHT22;6871;51.34740610;4.31323160;2023-05-02T11:28:42;18.30;79.70
13600;DHT22;6871;51.34740610;4.31323160;2023-05-02T11:34:44;18.40;79.30
13600;DHT22;6871;51.34740610;4.31323160;2023-05-02T11:37:14;18.40;80.10
13600;DHT22;6871;51.34740610;4.31323160;2023-05-02T11:39:43;18.50;80.20
13600;DHT22;6871;51.34740610;4.31323160;2023-05-02T11:42:28;18.60;80.50
13600;DHT22;6871;51.34740610;4.31323160;2023-05-02T11:44:59;18.60;80.50
13600;DHT22;6871;51.34740610;4.31323160;2023-05-02T11:47:31;18.60;79.70
13600;DHT22;6871;51.34740610;4.31323160;2023-05-02T11:50:02;18.70;79.60
13600;DHT22;6871;51.34740610;4.31323160;2023-05-02T11:52:35;18.70;79.60
13600;DHT22;6871;51.34740610;4.31323160;2023-05-02T11:55:06;18.80;79.70
13600;DHT22;6871;51.34740610;4.31323160;2023-05-02T11:57:37;18.80;79.80
13600;DHT22;6871;51.34740610;4.31323160;2023-05-02T12:00:10;18.80;79.90
13600;DHT22;6871;51.34740610;4.31323160;2023-05-02T12:02:40;18.80;80.00
13600;DHT22;6871;51.34740610;4.31323160;2023-05-02T12:05:11;18.80;80.40
13600;DHT22;6871;51.34740610;4.31323160;2023-05-02T12:07:42;18.70;79.40
13600;DHT22;6871;51.34740610;4.31323160;2023-05-02T12:10:13;18.80;80.70
13600;DHT22;6871;51.34740610;4.31323160;2023-05-02T12:12:44;18.80;81.10
13600;DHT22;6871;51.34740610;4.31323160;2023-05-02T12:15:13;18.90;81.30
13600;DHT22;6871;51.34740610;4.31323160;2023-05-02T12:17:46;18.90;81.20
13600;DHT22;6871;51.34740610;4.31323160;2023-05-02T12:20:17;18.90;81.10
13600;DHT22;6871;51.34740610;4.31323160;2023-05-02T12:22:47;19.00;80.80
13600;DHT22;6871;51.34740610;4.31323160;2023-05-02T12:25:17;19.00;81.20
13600;DHT22;6871;51.34740610;4.31323160;2023-05-02T12:27:59;18.80;78.40
13600;DHT22;6871;51.34740610;4.31323160;2023-05-02T12:30:29;18.80;76.20
13600;DHT22;6871;51.34740610;4.31323160;2023-05-02T12:33:00;18.80;78.80
13600;DHT22;6871;51.34740610;4.31323160;2023-05-02T12:35:30;18.80;79.60
13600;DHT22;6871;51.34740610;4.31323160;2023-05-02T12:38:12;18.90;80.40
13600;DHT22;6871;51.34740610;4.31323160;2023-05-02T12:40:52;18.80;77.60
13600;DHT22;6871;51.34740610;4.31323160;2023-05-02T12:43:24;18.80;77.80
13600;DHT22;6871;51.34740610;4.31323160;2023-05-02T12:46:08;18.80;78.40
13600;DHT22;6871;51.34740610;4.31323160;2023-05-02T12:48:38;18.90;79.60
13600;DHT22;6871;51.34740610;4.31323160;2023-05-02T12:51:19;18.80;79.70
13600;DHT22;6871;51.34740610;4.31323160;2023-05-02T12:53:49;18.80;80.60
13600;DHT22;6871;51.34740610;4.31323160;2023-05-02T12:56:18;18.90;81.20
13600;DHT22;6871;51.34740610;4.31323160;2023-05-02T12:58:49;18.90;80.10
13600;DHT22;6871;51.34740610;4.31323160;2023-05-02T13:01:18;18.90;80.90
13600;DHT22;6871;51.34740610;4.31323160;2023-05-02T13:03:49;18.90;80.90
13600;DHT22;6871;51.34740610;4.31323160;2023-05-02T13:06:19;18.90;80.60
13600;DHT22;6871;51.34740610;4.31323160;2023-05-02T13:08:48;18.90;80.70
13600;DHT22;6871;51.34740610;4.31323160;2023-05-02T13:11:17;18.90;80.50
13600;DHT22;6871;51.34740610;4.31323160;2023-05-02T13:13:47;18.90;80.60
13600;DHT22;6871;51.34740610;4.31323160;2023-05-02T13:16:16;18.90;80.90
13600;DHT22;6871;51.34740610;4.31323160;2023-05-02T13:18:46;18.90;81.10
13600;DHT22;6871;51.34740610;4.31323160;2023-05-02T13:21:15;18.90;81.20
13600;DHT22;6871;51.34740610;4.31323160;2023-05-02T13:23:46;18.90;81.10
13600;DHT22;6871;51.34740610;4.31323160;2023-05-02T13:26:17;18.90;81.10
13600;DHT22;6871;51.34740610;4.31323160;2023-05-02T13:28:46;18.90;80.60
13600;DHT22;6871;51.34740610;4.31323160;2023-05-02T13:31:15;18.80;80.70
13600;DHT22;6871;51.34740610;4.31323160;2023-05-02T13:33:45;18.80;80.60
13600;DHT22;6871;51.34740610;4.31323160;2023-05-02T13:39:04;18.80;77.80
13600;DHT22;6871;51.34740610;4.31323160;2023-05-02T13:41:34;18.70;77.60
13600;DHT22;6871;51.34740610;4.31323160;2023-05-02T13:44:06;18.70;76.70
13600;DHT22;6871;51.34740610;4.31323160;2023-05-02T13:46:36;18.80;77.50
13600;DHT22;6871;51.34740610;4.31323160;2023-05-02T13:49:09;18.80;78.30
13600;DHT22;6871;51.34740610;4.31323160;2023-05-02T13:51:41;18.80;79.00
13600;DHT22;6871;51.34740610;4.31323160;2023-05-02T13:54:10;18.80;79.20
13600;DHT22;6871;51.34740610;4.31323160;2023-05-02T13:56:39;18.90;78.80
13600;DHT22;6871;51.34740610;4.31323160;2023-05-02T13:59:09;18.80;77.80
13600;DHT22;6871;51.34740610;4.31323160;2023-05-02T14:01:39;18.90;78.30
13600;DHT22;6871;51.34740610;4.31323160;2023-05-02T14:04:09;18.90;79.00
13600;DHT22;6871;51.34740610;4.31323160;2023-05-02T14:06:38;18.80;79.00
13600;DHT22;6871;51.34740610;4.31323160;2023-05-02T14:09:07;18.90;78.50
13600;DHT22;6871;51.34740610;4.31323160;2023-05-02T14:11:37;18.90;78.50
13600;DHT22;6871;51.34740610;4.31323160;2023-05-02T14:14:06;18.90;78.20
13600;DHT22;6871;51.34740610;4.31323160;2023-05-02T14:16:37;18.90;77.80
13600;DHT22;6871;51.34740610;4.31323160;2023-05-02T14:19:06;18.90;78.30